Time;durP1;ratioP1;P1;durP2;ratioP2;P2;SDS_P1;SDS_P2;PMS_P1;PMS_P2;Temp;Humidity;BMP_temperature;BMP_pressure;BME280_temperature;BME280_humidity;BME280_pressure;Samples;Min_cycle;Max_cycle;Signal;HPM_P1;HPM_P2
2024/01/15 00:01:58;;;;;;;1999.90;999.90;;;2.00;99.90;;;;;;5088060;28;20082;-71
2024/01/15 00:04:23;;;;;;;1999.90;999.90;;;2.10;99.90;;;;;;5082847;28;20043;-71
2024/01/15 00:06:50;;;;;;;1999.90;999.90;;;2.20;99.90;;;;;;5086120;28;20064;-71
2024/01/15 00:09:16;;;;;;;1999.90;999.90;;;2.20;99.90;;;;;;5090994;28;20066;-71
2024/01/15 00:11:42;;;;;;;1999.90;999.90;;;2.20;99.90;;;;;;5086861;28;20355;-71
2024/01/15 00:14:08;;;;;;;1999.90;999.90;;;2.20;99.90;;;;;;5085822;28;20336;-70
2024/01/15 00:16:34;;;;;;;1999.90;999.90;;;2.20;99.90;;;;;;5066819;28;20028;-69
2024/01/15 00:19:00;;;;;;;1999.90;999.90;;;2.00;99.90;;;;;;5088985;28;20031;-71
2024/01/15 00:21:27;;;;;;;1999.90;999.90;;;2.00;99.90;;;;;;5087173;28;20318;-70
2024/01/15 00:23:53;;;;;;;1999.90;999.90;;;2.00;99.90;;;;;;5069432;28;20027;-71
2024/01/15 00:26:19;;;;;;;1999.90;999.90;;;2.00;99.90;;;;;;5088196;28;20020;-71
2024/01/15 00:28:45;;;;;;;1999.90;999.90;;;2.00;99.90;;;;;;5090286;28;20768;-70
2024/01/15 00:31:11;;;;;;;1999.90;999.90;;;2.20;99.90;;;;;;5075992;28;20040;-70
2024/01/15 00:33:36;;;;;;;1999.90;999.90;;;2.50;99.90;;;;;;5082846;28;20063;-70
2024/01/15 00:36:03;;;;;;;1999.90;999.90;;;2.50;99.90;;;;;;5077576;28;20557;-70
2024/01/15 00:38:29;;;;;;;1999.90;999.90;;;2.40;99.90;;;;;;5083465;28;20020;-70
2024/01/15 00:40:55;;;;;;;1999.90;999.90;;;2.40;99.90;;;;;;5083174;28;20028;-71
2024/01/15 00:43:21;;;;;;;1999.90;999.90;;;2.40;99.90;;;;;;5084314;28;20050;-70
2024/01/15 00:45:47;;;;;;;1999.90;999.90;;;2.30;99.90;;;;;;5080736;28;20056;-70
2024/01/15 00:48:12;;;;;;;1999.90;999.90;;;2.30;99.90;;;;;;5080609;28;20507;-71
2024/01/15 00:50:38;;;;;;;1999.90;999.90;;;2.40;99.90;;;;;;5089377;28;20107;-70
2024/01/15 00:53:04;;;;;;;1999.90;999.90;;;2.50;99.90;;;;;;5084252;28;20024;-70
2024/01/15 00:55:30;;;;;;;1999.90;999.90;;;2.50;99.90;;;;;;5082208;28;20077;-70
2024/01/15 00:57:56;;;;;;;1999.90;999.90;;;2.50;99.90;;;;;;5085660;28;20195;-71
2024/01/15 01:00:21;;;;;;;1999.90;999.90;;;2.70;99.90;;;;;;5084663;28;20032;-70
2024/01/15 01:02:47;;;;;;;1999.90;999.90;;;2.50;99.90;;;;;;5082170;28;20032;-71
2024/01/15 01:05:13;;;;;;;1999.90;999.90;;;2.40;99.90;;;;;;5091083;28;20024;-70
2024/01/15 01:07:39;;;;;;;1999.90;999.90;;;2.30;99.90;;;;;;5091886;28;20031;-71
2024/01/15 01:10:05;;;;;;;1999.90;999.90;;;2.30;99.90;;;;;;5081533;28;20449;-71
2024/01/15 01:12:30;;;;;;;1999.90;999.90;;;2.30;99.90;;;;;;5090915;28;20024;-71
2024/01/15 01:14:56;;;;;;;1999.90;999.90;;;2.30;99.90;;;;;;5089920;28;20046;-71
2024/01/15 01:17:22;;;;;;;1999.90;999.90;;;2.30;99.90;;;;;;5067100;28;20028;-71
2024/01/15 01:19:49;;;;;;;1999.90;999.90;;;2.30;99.90;;;;;;5091228;28;20039;-70
2024/01/15 01:22:15;;;;;;;;;;;2.30;99.90;;;;;;5079282;28;20269;-71
2024/01/15 01:24:40;;;;;;;1999.90;999.90;;;2.20;99.90;;;;;;5087149;28;19912;-70
2024/01/15 01:27:06;;;;;;;1999.90;999.90;;;2.10;99.90;;;;;;5076858;28;20281;-70
2024/01/15 01:29:32;;;;;;;1999.90;999.90;;;2.10;99.90;;;;;;5073389;28;20024;-71
2024/01/15 01:31:57;;;;;;;1999.90;999.90;;;2.00;99.90;;;;;;5087055;28;20107;-71
2024/01/15 01:34:23;;;;;;;1999.90;999.90;;;2.10;99.90;;;;;;5089073;28;20016;-70
2024/01/15 01:36:49;;;;;;;1999.90;999.90;;;2.20;99.90;;;;;;5091837;28;20036;-70
2024/01/15 01:39:14;;;;;;;1999.90;999.90;;;2.40;99.90;;;;;;5088398;28;20104;-70
2024/01/15 01:41:40;;;;;;;1999.90;999.90;;;2.50;99.90;;;;;;5091636;28;20016;-71
2024/01/15 01:44:07;;;;;;;1999.90;999.90;;;2.50;99.90;;;;;;5089921;28;20024;-71
2024/01/15 01:46:33;;;;;;;;;;;2.50;99.90;;;;;;5079533;28;20103;-71
2024/01/15 01:49:05;;;;;;;;;;;2.50;99.90;;;;;;5075312;28;19912;-71
2024/01/15 01:51:30;;;;;;;1999.90;999.90;;;2.40;99.90;;;;;;5085109;28;19908;-72
2024/01/15 01:53:56;;;;;;;1999.90;999.90;;;2.30;99.90;;;;;;5068949;28;20028;-71
2024/01/15 01:56:22;;;;;;;1999.90;999.90;;;2.30;99.90;;;;;;5091289;28;20391;-71
2024/01/15 01:58:48;;;;;;;1999.90;999.90;;;2.40;99.90;;;;;;5091507;28;20029;-70
2024/01/15 02:01:35;;;;;;;1999.90;999.90;;;2.30;99.90;;;;;;5071608;28;20031;-70
2024/01/15 02:04:01;;;;;;;1999.90;999.90;;;2.30;99.90;;;;;;5085077;28;20024;-70
2024/01/15 02:06:27;;;;;;;1999.90;999.90;;;2.30;99.90;;;;;;5091603;28;20028;-70
2024/01/15 02:08:53;;;;;;;1999.90;999.90;;;2.20;99.90;;;;;;5087036;28;20024;-71
2024/01/15 02:11:19;;;;;;;1999.90;999.90;;;2.10;99.90;;;;;;5075333;28;20020;-70
2024/01/15 02:13:45;;;;;;;1999.90;999.90;;;2.10;99.90;;;;;;5070343;28;20036;-71
2024/01/15 02:16:11;;;;;;;1999.90;999.90;;;2.10;99.90;;;;;;5090209;28;20031;-70
2024/01/15 02:18:44;;;;;;;1999.90;999.90;;;2.10;99.90;;;;;;5076271;28;20036;-71
2024/01/15 02:21:10;;;;;;;1999.90;999.90;;;2.10;99.90;;;;;;5093954;28;20375;-70
2024/01/15 02:23:37;;;;;;;1999.90;999.90;;;2.10;99.90;;;;;;5094572;28;20035;-71
2024/01/15 02:26:04;;;;;;;1999.90;999.90;;;2.00;99.90;;;;;;5094064;28;20165;-71
2024/01/15 02:28:30;;;;;;;1999.90;999.90;;;2.00;99.90;;;;;;5094348;28;20028;-71
2024/01/15 02:30:55;;;;;;;1999.90;999.90;;;2.00;99.90;;;;;;5093654;28;20055;-71
2024/01/15 02:33:21;;;;;;;1999.90;999.90;;;2.00;99.90;;;;;;5094435;28;20030;-71
2024/01/15 02:35:49;;;;;;;1999.90;999.90;;;2.00;99.90;;;;;;5093613;28;20102;-71
2024/01/15 02:38:15;;;;;;;1999.90;999.90;;;2.00;99.90;;;;;;5093974;28;20044;-71
2024/01/15 02:40:43;;;;;;;1999.90;999.90;;;2.00;99.90;;;;;;5089928;28;20047;-70
2024/01/15 02:43:08;;;;;;;1999.90;999.90;;;2.10;99.90;;;;;;5072401;28;20039;-71
2024/01/15 02:45:34;;;;;;;1999.90;999.90;;;2.10;99.90;;;;;;5077931;28;20037;-70
2024/01/15 02:48:26;;;;;;;1999.90;999.90;;;2.10;99.90;;;;;;5079990;28;20115;-71
2024/01/15 02:50:52;;;;;;;1999.90;999.90;;;2.10;99.90;;;;;;5086589;28;20021;-71
2024/01/15 02:53:17;;;;;;;1999.90;999.90;;;2.20;99.90;;;;;;5091092;28;20027;-71
2024/01/15 02:55:43;;;;;;;1999.90;999.90;;;2.10;99.90;;;;;;5089861;28;20028;-70
2024/01/15 02:58:09;;;;;;;1999.90;999.90;;;2.20;99.90;;;;;;5090274;28;20050;-70
2024/01/15 03:00:34;;;;;;;1999.90;999.90;;;2.30;99.90;;;;;;5089382;28;20123;-71
2024/01/15 03:03:00;;;;;;;1999.90;999.90;;;2.30;99.90;;;;;;5087857;28;20028;-71
2024/01/15 03:05:26;;;;;;;1999.90;999.90;;;2.20;99.90;;;;;;5072578;28;20034;-71
2024/01/15 03:07:51;;;;;;;1999.90;999.90;;;2.20;99.90;;;;;;5090275;28;20028;-70
2024/01/15 03:10:17;;;;;;;1999.90;999.90;;;2.20;99.90;;;;;;5092590;28;20031;-70
2024/01/15 03:12:43;;;;;;;1999.90;999.90;;;2.20;99.90;;;;;;5085622;28;20060;-71
2024/01/15 03:15:09;;;;;;;1999.90;999.90;;;2.10;99.90;;;;;;5089067;28;20024;-71
2024/01/15 03:17:34;;;;;;;1999.90;999.90;;;2.00;99.90;;;;;;5093212;28;20421;-71
2024/01/15 03:20:00;;;;;;;1999.90;999.90;;;1.80;99.90;;;;;;5091252;28;20157;-71
2024/01/15 03:22:26;;;;;;;1999.90;999.90;;;1.70;99.90;;;;;;5085421;28;20028;-71
2024/01/15 03:24:52;;;;;;;1999.90;999.90;;;1.60;99.90;;;;;;5085277;28;20035;-72
2024/01/15 03:27:18;;;;;;;1999.90;999.90;;;1.50;99.90;;;;;;5092286;28;20318;-71
2024/01/15 03:29:44;;;;;;;1999.90;999.90;;;1.40;99.90;;;;;;5066467;28;20028;-71
2024/01/15 03:32:09;;;;;;;1999.90;999.90;;;1.40;99.90;;;;;;5086714;28;20045;-71
2024/01/15 03:34:35;;;;;;;1999.90;999.90;;;1.40;99.90;;;;;;5082747;28;20028;-71
2024/01/15 03:37:01;;;;;;;1999.90;999.90;;;1.30;99.90;;;;;;5057662;28;20023;-71
2024/01/15 03:39:27;;;;;;;1999.90;999.90;;;1.20;99.90;;;;;;5080978;28;20021;-71
2024/01/15 03:41:52;;;;;;;1999.90;999.90;;;1.20;99.90;;;;;;5073295;28;20059;-71
2024/01/15 03:44:18;;;;;;;1999.90;999.90;;;1.20;99.90;;;;;;5077175;28;20061;-71
2024/01/15 03:46:44;;;;;;;1999.90;999.90;;;1.20;99.90;;;;;;5071645;28;20021;-71
2024/01/15 03:49:09;;;;;;;1999.90;999.90;;;1.20;99.90;;;;;;5062628;28;20090;-71
2024/01/15 03:51:35;;;;;;;1999.90;999.90;;;1.20;99.90;;;;;;5081579;28;20060;-71
2024/01/15 03:54:01;;;;;;;1999.90;999.90;;;1.10;99.90;;;;;;5082464;28;20028;-71
2024/01/15 03:56:26;;;;;;;1999.90;999.90;;;1.10;99.90;;;;;;5092072;28;20111;-71
2024/01/15 03:58:52;;;;;;;1999.90;999.90;;;1.00;99.90;;;;;;5088792;28;20021;-71
2024/01/15 04:01:18;;;;;;;1999.90;999.90;;;1.00;99.90;;;;;;5084596;28;20024;-71
2024/01/15 04:03:43;;;;;;;1999.90;999.90;;;1.00;99.90;;;;;;5091928;28;20426;-70
2024/01/15 04:06:09;;;;;;;1999.90;999.90;;;1.10;99.90;;;;;;5084734;28;20029;-70
2024/01/15 04:08:35;;;;;;;1999.90;999.90;;;1.10;99.90;;;;;;5092431;28;20036;-70
2024/01/15 04:11:01;;;;;;;1999.90;999.90;;;1.00;99.90;;;;;;5090765;28;20086;-70
2024/01/15 04:13:27;;;;;;;1999.90;999.90;;;1.00;99.90;;;;;;5092446;28;20371;-71
2024/01/15 04:15:53;;;;;;;1999.90;999.90;;;1.00;99.90;;;;;;5090416;28;20028;-70
2024/01/15 04:18:18;;;;;;;1999.90;999.90;;;1.10;99.90;;;;;;5082615;28;20080;-70
2024/01/15 04:20:44;;;;;;;1999.90;999.90;;;1.30;99.90;;;;;;5076468;28;20028;-71
2024/01/15 04:23:10;;;;;;;1999.90;999.90;;;1.40;99.90;;;;;;5082463;28;20024;-71
2024/01/15 04:25:36;;;;;;;1999.90;999.90;;;1.50;99.90;;;;;;5071527;28;20067;-71
2024/01/15 04:28:02;;;;;;;1999.90;999.90;;;1.50;99.90;;;;;;5081629;28;20034;-71
2024/01/15 04:30:27;;;;;;;1999.90;999.90;;;1.70;99.90;;;;;;5091971;28;20055;-71
2024/01/15 04:32:53;;;;;;;1999.90;999.90;;;1.80;99.90;;;;;;5090907;28;20335;-71
2024/01/15 04:35:19;;;;;;;1999.90;999.90;;;1.80;99.90;;;;;;5087904;28;20028;-70
2024/01/15 04:37:44;;;;;;;1999.90;999.90;;;1.90;99.90;;;;;;5092492;28;20034;-71
2024/01/15 04:40:11;;;;;;;1999.90;999.90;;;2.00;99.90;;;;;;5091941;28;20135;-71
2024/01/15 04:42:37;;;;;;;1999.90;999.90;;;2.00;99.90;;;;;;5089686;28;20047;-71
2024/01/15 04:45:03;;;;;;;1999.90;999.90;;;2.00;99.90;;;;;;5083118;28;20032;-71
2024/01/15 04:47:29;;;;;;;1999.90;999.90;;;2.00;99.90;;;;;;5091666;28;20027;-71
2024/01/15 04:49:54;;;;;;;1999.90;999.90;;;1.90;99.90;;;;;;5092095;28;20188;-72
2024/01/15 04:52:20;;;;;;;1999.90;999.90;;;1.90;99.90;;;;;;5073076;28;20028;-71
2024/01/15 04:54:46;;;;;;;1999.90;999.90;;;1.90;99.90;;;;;;5077767;28;20029;-72
2024/01/15 04:57:12;;;;;;;1999.90;999.90;;;1.90;99.90;;;;;;5078671;28;20103;-71
2024/01/15 04:59:37;;;;;;;1999.90;999.90;;;1.80;99.90;;;;;;5069246;28;20108;-72
2024/01/15 05:02:03;;;;;;;1999.90;999.90;;;1.90;99.90;;;;;;5057843;28;20057;-72
2024/01/15 05:04:29;;;;;;;1999.90;999.90;;;1.90;99.90;;;;;;5088608;28;20419;-72
2024/01/15 05:06:55;;;;;;;1999.90;999.90;;;1.90;99.90;;;;;;5091955;28;20125;-72
2024/01/15 05:09:21;;;;;;;1999.90;999.90;;;1.90;99.90;;;;;;5090813;28;20495;-72
2024/01/15 05:11:47;;;;;;;1999.90;999.90;;;1.90;99.90;;;;;;5089679;28;20107;-70
2024/01/15 05:14:12;;;;;;;1999.90;999.90;;;1.90;99.90;;;;;;5073554;28;20034;-72
2024/01/15 05:16:39;;;;;;;1999.90;999.90;;;1.90;99.90;;;;;;5090866;28;20411;-71
2024/01/15 05:19:07;;;;;;;1999.90;999.90;;;1.90;99.90;;;;;;5087232;28;20419;-72
2024/01/15 05:21:33;;;;;;;1999.90;999.90;;;1.90;99.90;;;;;;5087740;28;20480;-71
2024/01/15 05:23:58;;;;;;;1999.90;999.90;;;1.70;99.90;;;;;;5091211;28;20028;-71
2024/01/15 05:26:24;;;;;;;1999.90;999.90;;;1.70;99.90;;;;;;5084629;28;20047;-72
2024/01/15 05:28:50;;;;;;;1999.90;999.90;;;1.60;99.90;;;;;;5088046;28;20086;-71
2024/01/15 05:31:15;;;;;;;1999.90;999.90;;;1.60;99.90;;;;;;5080308;28;20058;-71
2024/01/15 05:33:41;;;;;;;1999.90;999.90;;;1.60;99.90;;;;;;5071701;28;20032;-72
2024/01/15 05:36:07;;;;;;;1999.90;999.90;;;1.70;99.90;;;;;;5091667;28;20077;-71
2024/01/15 05:38:32;;;;;;;1999.90;999.90;;;1.70;99.90;;;;;;5094285;28;20040;-71
2024/01/15 05:40:58;;;;;;;1999.90;999.90;;;1.50;99.90;;;;;;5079744;28;20032;-71
2024/01/15 05:43:24;;;;;;;1999.90;999.90;;;1.40;99.90;;;;;;5091513;28;20059;-71
2024/01/15 05:45:49;;;;;;;1999.90;999.90;;;1.30;99.90;;;;;;5084602;28;20043;-72
2024/01/15 05:48:15;;;;;;;1999.90;999.90;;;1.30;99.90;;;;;;5074696;28;20028;-72
2024/01/15 05:50:41;;;;;;;1999.90;999.90;;;1.30;99.90;;;;;;5080199;28;20036;-72
2024/01/15 05:53:07;;;;;;;1999.90;999.90;;;1.20;99.90;;;;;;5094350;28;20047;-71
2024/01/15 05:55:34;;;;;;;1999.90;999.90;;;1.20;99.90;;;;;;5094463;28;20060;-72
2024/01/15 05:58:00;;;;;;;1999.90;999.90;;;1.30;99.90;;;;;;5086498;28;20103;-72
2024/01/15 06:00:26;;;;;;;1999.90;999.90;;;1.30;99.90;;;;;;5084426;28;20470;-72
2024/01/15 06:02:52;;;;;;;1999.90;999.90;;;1.30;99.90;;;;;;5093540;28;20365;-72
2024/01/15 06:05:18;;;;;;;1999.90;999.90;;;1.30;99.90;;;;;;5085158;28;20359;-72
2024/01/15 06:07:43;;;;;;;1999.90;999.90;;;1.40;99.90;;;;;;5083508;28;20035;-71
2024/01/15 06:10:09;;;;;;;1999.90;999.90;;;1.40;99.90;;;;;;5081493;28;20025;-72
2024/01/15 06:12:35;;;;;;;1999.90;999.90;;;1.40;99.90;;;;;;5076531;28;20024;-72
2024/01/15 06:15:01;;;;;;;1999.90;999.90;;;1.40;99.90;;;;;;5094281;28;20717;-72
2024/01/15 06:17:26;;;;;;;1999.90;999.90;;;1.30;99.90;;;;;;5087561;28;20035;-72
2024/01/15 06:19:52;;;;;;;1999.90;999.90;;;1.20;99.90;;;;;;5072922;28;20024;-71
2024/01/15 06:22:18;;;;;;;1999.90;999.90;;;1.10;99.90;;;;;;5091340;28;20103;-72
2024/01/15 06:24:44;;;;;;;1999.90;999.90;;;1.10;99.90;;;;;;5084039;28;20315;-72
2024/01/15 06:27:09;;;;;;;1999.90;999.90;;;1.00;99.90;;;;;;5090641;28;20031;-72
2024/01/15 06:29:37;;;;;;;1999.90;999.90;;;1.00;99.90;;;;;;5093923;28;20320;-72
2024/01/15 06:32:04;;;;;;;1999.90;999.90;;;0.90;99.90;;;;;;5093530;28;20032;-72
2024/01/15 06:34:30;;;;;;;1999.90;999.90;;;0.90;99.90;;;;;;5089688;28;20029;-71
2024/01/15 06:36:55;;;;;;;1999.90;999.90;;;0.90;99.90;;;;;;5092566;28;20031;-72
2024/01/15 06:39:21;;;;;;;1999.90;999.90;;;0.90;99.90;;;;;;5065822;28;20107;-72
2024/01/15 06:41:47;;;;;;;1999.90;999.90;;;0.90;99.90;;;;;;5092477;28;20024;-72
2024/01/15 06:44:13;;;;;;;1999.90;999.90;;;1.10;99.90;;;;;;5092625;28;20449;-72
2024/01/15 06:46:45;;;;;;;1999.90;999.90;;;1.20;99.90;;;;;;5066199;28;20105;-72
2024/01/15 06:49:11;;;;;;;1999.90;999.90;;;1.20;99.90;;;;;;5079839;28;20058;-72
2024/01/15 06:51:37;;;;;;;1999.90;999.90;;;1.30;99.90;;;;;;5091719;28;20024;-71
2024/01/15 06:54:03;;;;;;;1999.90;999.90;;;1.30;99.90;;;;;;5086655;28;20035;-71
2024/01/15 06:56:29;;;;;;;1999.90;999.90;;;1.30;99.90;;;;;;5080441;28;20048;-71
2024/01/15 06:58:54;;;;;;;1999.90;999.90;;;1.20;99.90;;;;;;5069178;28;20024;-72
2024/01/15 07:01:20;;;;;;;1999.90;999.90;;;1.20;99.90;;;;;;5092070;28;20077;-72
2024/01/15 07:03:46;;;;;;;1999.90;999.90;;;1.30;99.90;;;;;;5093354;28;20067;-72
2024/01/15 07:06:40;;;;;;;1999.90;999.90;;;1.20;99.90;;;;;;5093139;28;20024;-72
2024/01/15 07:09:22;;;;;;;1999.90;999.90;;;1.20;99.90;;;;;;5073270;28;20606;-72
2024/01/15 07:11:48;;;;;;;1999.90;999.90;;;1.20;99.90;;;;;;5074394;28;20028;-72
2024/01/15 07:14:14;;;;;;;1999.90;999.90;;;1.20;99.90;;;;;;5090594;28;20077;-72
2024/01/15 07:16:39;;;;;;;1999.90;999.90;;;1.10;99.90;;;;;;5074334;28;20473;-72
2024/01/15 07:19:06;;;;;;;1999.90;999.90;;;1.10;99.90;;;;;;5091152;28;20054;-72
2024/01/15 07:21:32;;;;;;;1999.90;999.90;;;1.10;99.90;;;;;;5093397;28;20028;-72
2024/01/15 07:23:57;;;;;;;1999.90;999.90;;;1.10;99.90;;;;;;5084023;28;20036;-71
2024/01/15 07:26:23;;;;;;;1999.90;999.90;;;1.20;99.90;;;;;;5066017;28;20318;-72
2024/01/15 07:28:49;;;;;;;1999.90;999.90;;;1.20;99.90;;;;;;5091046;28;20028;-72
2024/01/15 07:31:17;;;;;;;1999.90;999.90;;;1.20;99.90;;;;;;5071384;28;20044;-72
2024/01/15 07:33:42;;;;;;;1999.90;999.90;;;1.30;99.90;;;;;;5082282;28;20315;-72
2024/01/15 07:36:08;;;;;;;1999.90;999.90;;;1.30;99.90;;;;;;5093210;28;20020;-72
2024/01/15 07:38:34;;;;;;;1999.90;999.90;;;1.30;99.90;;;;;;5087131;28;20035;-72
2024/01/15 07:40:59;;;;;;;1999.90;999.90;;;1.20;99.90;;;;;;5089324;28;20082;-72
2024/01/15 07:43:26;;;;;;;1999.90;999.90;;;1.20;99.90;;;;;;5092991;28;20031;-71
2024/01/15 07:45:52;;;;;;;;;;;1.20;99.90;;;;;;5080074;28;20020;-72
2024/01/15 07:48:17;;;;;;;1999.90;999.90;;;1.20;99.90;;;;;;5071779;28;19908;-72
2024/01/15 07:50:43;;;;;;;1999.90;999.90;;;1.10;99.90;;;;;;5083458;28;20008;-72
2024/01/15 07:53:09;;;;;;;1999.90;999.90;;;1.00;99.90;;;;;;5086643;28;20026;-71
2024/01/15 07:55:34;;;;;;;1999.90;999.90;;;0.90;99.90;;;;;;5078838;28;20103;-71
2024/01/15 07:58:01;;;;;;;1999.90;999.90;;;0.90;99.90;;;;;;5090339;28;20032;-72
2024/01/15 08:00:27;;;;;;;1999.90;999.90;;;0.90;99.90;;;;;;5076818;28;20032;-71
2024/01/15 08:02:53;;;;;;;1999.90;999.90;;;0.90;99.90;;;;;;5092652;28;20031;-71
2024/01/15 08:05:19;;;;;;;1999.90;999.90;;;1.00;99.90;;;;;;5074851;28;20069;-70
2024/01/15 08:07:44;;;;;;;1999.90;999.90;;;1.20;99.90;;;;;;5092553;28;20028;-70
2024/01/15 08:10:10;;;;;;;1999.90;999.90;;;1.40;99.90;;;;;;5091160;28;20034;-70
2024/01/15 08:12:36;;;;;;;1999.90;999.90;;;1.40;99.90;;;;;;5091270;28;20047;-71
2024/01/15 08:15:01;;;;;;;1999.90;999.90;;;1.30;99.90;;;;;;5082462;28;20039;-71
2024/01/15 08:17:28;;;;;;;1999.90;999.90;;;1.20;99.90;;;;;;5090444;28;20016;-71
2024/01/15 08:19:54;;;;;;;1999.90;999.90;;;1.20;99.90;;;;;;5089907;28;20099;-71
2024/01/15 08:22:20;;;;;;;1999.90;999.90;;;1.20;99.90;;;;;;5087831;28;20028;-71
2024/01/15 08:24:46;;;;;;;1999.90;999.90;;;1.20;99.90;;;;;;5085261;28;20028;-71
2024/01/15 08:27:12;;;;;;;1999.90;999.90;;;1.20;99.90;;;;;;5091995;28;20115;-72
2024/01/15 08:29:37;;;;;;;1999.90;999.90;;;1.30;99.90;;;;;;5084888;28;20035;-71
2024/01/15 08:32:03;;;;;;;1999.90;999.90;;;1.20;99.90;;;;;;5069852;28;20446;-71
2024/01/15 08:34:29;;;;;;;1999.90;999.90;;;1.20;99.90;;;;;;5072772;28;20031;-71
2024/01/15 08:36:54;;;;;;;1999.90;999.90;;;1.30;99.90;;;;;;5061293;28;20436;-71
2024/01/15 08:39:20;;;;;;;1999.90;999.90;;;1.30;99.90;;;;;;5088714;28;20028;-71
2024/01/15 08:41:49;;;;;;;1999.90;999.90;;;1.40;99.90;;;;;;5088011;28;20043;-71
2024/01/15 08:44:14;;;;;;;1999.90;999.90;;;1.40;99.90;;;;;;5090056;28;20073;-71
2024/01/15 08:46:40;;;;;;;1999.90;999.90;;;1.50;99.90;;;;;;5092507;28;20028;-71
2024/01/15 08:49:06;;;;;;;1999.90;999.90;;;1.50;99.90;;;;;;5091135;28;20056;-71
2024/01/15 08:51:31;;;;;;;1999.90;999.90;;;1.60;99.90;;;;;;5090635;28;20066;-71
2024/01/15 08:53:58;;;;;;;1999.90;999.90;;;1.60;99.90;;;;;;5066571;28;20024;-70
2024/01/15 08:56:23;;;;;;;1999.90;999.90;;;1.50;99.90;;;;;;5067626;28;20020;-71
2024/01/15 08:58:49;;;;;;;1999.90;999.90;;;1.50;99.90;;;;;;5083887;28;20032;-71
2024/01/15 09:01:15;;;;;;;1999.90;999.90;;;1.60;99.90;;;;;;5092130;28;20020;-71
2024/01/15 09:03:43;;;;;;;1999.90;999.90;;;1.50;99.90;;;;;;5082239;28;20028;-71
2024/01/15 09:06:10;;;;;;;1999.90;999.90;;;1.50;99.90;;;;;;5089929;28;20028;-71
2024/01/15 09:08:36;;;;;;;1999.90;999.90;;;1.50;99.90;;;;;;5092222;28;20032;-71
2024/01/15 09:11:03;;;;;;;1999.90;999.90;;;1.50;99.90;;;;;;5084717;28;20024;-71
2024/01/15 09:13:28;;;;;;;1999.90;999.90;;;1.50;99.90;;;;;;5076166;28;20081;-71
2024/01/15 09:15:54;;;;;;;1999.90;999.90;;;1.50;99.90;;;;;;5096067;28;20412;-71
2024/01/15 09:18:20;;;;;;;1999.90;999.90;;;1.40;99.90;;;;;;5094575;28;20031;-71
2024/01/15 09:20:45;;;;;;;1999.90;999.90;;;1.40;99.90;;;;;;5085639;28;20024;-71
2024/01/15 09:23:11;;;;;;;1999.90;999.90;;;1.50;99.90;;;;;;5094519;28;20042;-71
2024/01/15 09:25:37;;;;;;;1999.90;999.90;;;1.50;99.90;;;;;;5095065;28;20059;-71
2024/01/15 09:28:02;;;;;;;1999.90;999.90;;;1.60;99.90;;;;;;5095936;28;20407;-71
2024/01/15 09:30:28;;;;;;;1999.90;999.90;;;1.60;99.90;;;;;;5086450;28;20292;-71
2024/01/15 09:32:54;;;;;;;1999.90;999.90;;;1.60;99.90;;;;;;5093601;28;20119;-71
2024/01/15 09:35:19;;;;;;;1999.90;999.90;;;1.60;99.90;;;;;;5078275;28;20020;-71
2024/01/15 09:37:45;;;;;;;1999.90;999.90;;;1.60;99.90;;;;;;5091647;28;20013;-71
2024/01/15 09:40:14;;;;;;;1999.90;999.90;;;1.60;99.90;;;;;;5064588;28;20423;-71
2024/01/15 09:42:42;;;;;;;1999.90;999.90;;;1.70;99.90;;;;;;5094279;28;20331;-71
2024/01/15 09:45:09;;;;;;;1999.90;999.90;;;1.90;99.90;;;;;;5095615;28;20028;-71
2024/01/15 09:47:36;;;;;;;1999.90;999.90;;;1.90;99.90;;;;;;5094752;28;20111;-71
2024/01/15 09:50:03;;;;;;;1999.90;999.90;;;2.00;99.90;;;;;;5086146;28;20047;-72
2024/01/15 09:52:30;;;;;;;1999.90;999.90;;;2.00;99.90;;;;;;5094534;28;20028;-71
2024/01/15 09:54:58;;;;;;;1999.90;999.90;;;2.00;99.90;;;;;;5093175;28;20122;-71
2024/01/15 09:57:24;;;;;;;1999.90;999.90;;;2.10;99.90;;;;;;5086072;28;20429;-71
2024/01/15 09:59:53;;;;;;;1999.90;999.90;;;2.30;99.90;;;;;;5094156;28;20024;-72
2024/01/15 10:02:18;;;;;;;1999.90;999.90;;;2.30;99.90;;;;;;5089361;28;20257;-71
2024/01/15 10:04:45;;;;;;;1999.90;999.90;;;2.30;99.90;;;;;;5085278;28;20032;-71
2024/01/15 10:07:19;;;;;;;1999.90;999.90;;;2.30;99.90;;;;;;5094728;28;20028;-70
2024/01/15 10:09:45;;;;;;;1999.90;999.90;;;2.30;99.90;;;;;;5089398;28;20022;-71
2024/01/15 10:12:12;;;;;;;1999.90;999.90;;;2.30;99.90;;;;;;5085742;28;20024;-71
2024/01/15 10:14:37;;;;;;;1999.90;999.90;;;2.10;99.90;;;;;;5094050;28;20056;-71
2024/01/15 10:17:15;;;;;;;1999.90;999.90;;;2.10;99.90;;;;;;5087393;28;20063;-71
2024/01/15 10:19:41;;;;;;;1999.90;999.90;;;2.10;99.90;;;;;;5073559;28;20077;-71
2024/01/15 10:22:09;;;;;;;1999.90;999.90;;;2.10;99.90;;;;;;5089661;28;20404;-71
2024/01/15 10:24:40;;;;;;;1999.90;999.90;;;2.30;99.90;;;;;;5072506;28;20028;-71
2024/01/15 10:27:07;;;;;;;1999.90;999.90;;;2.50;99.90;;;;;;5091755;28;20476;-71
2024/01/15 10:29:32;;;;;;;1999.90;999.90;;;2.50;99.90;;;;;;5093178;28;20013;-68
2024/01/15 10:31:59;;;;;;;1999.90;999.90;;;2.50;99.90;;;;;;5087262;28;20331;-69
2024/01/15 10:34:25;;;;;;;1999.90;999.90;;;2.50;99.90;;;;;;5075952;28;20016;-69
2024/01/15 10:36:55;;;;;;;1999.90;999.90;;;2.50;99.90;;;;;;5075953;28;20032;-69
2024/01/15 10:39:26;;;;;;;1999.90;999.90;;;2.60;99.90;;;;;;5079571;28;20267;-71
2024/01/15 10:41:52;;;;;;;1999.90;999.90;;;2.60;99.90;;;;;;5088253;28;20031;-69
2024/01/15 10:44:19;;;;;;;1999.90;999.90;;;2.50;99.90;;;;;;5087704;28;20036;-68
2024/01/15 10:46:45;;;;;;;1999.90;999.90;;;2.30;99.90;;;;;;5093565;28;20027;-67
2024/01/15 10:49:14;;;;;;;1999.90;999.90;;;2.10;99.90;;;;;;5090306;28;20057;-69
2024/01/15 10:51:41;;;;;;;1999.90;999.90;;;1.90;99.90;;;;;;5083733;28;20095;-67
2024/01/15 10:54:10;;;;;;;1999.90;999.90;;;1.80;99.90;;;;;;5082568;28;20047;-69
2024/01/15 10:56:37;;;;;;;1999.90;999.90;;;1.70;99.90;;;;;;5079270;28;20037;-67
2024/01/15 10:59:04;;;;;;;1999.90;999.90;;;1.70;99.90;;;;;;5065908;28;20036;-69
2024/01/15 11:01:31;;;;;;;1999.90;999.90;;;1.70;99.90;;;;;;5093509;28;20024;-68
2024/01/15 11:03:57;;;;;;;1999.90;999.90;;;1.70;99.90;;;;;;5093932;28;20103;-69
2024/01/15 11:06:24;;;;;;;1999.90;999.90;;;1.70;99.90;;;;;;5059596;28;20025;-69
2024/01/15 11:08:52;;;;;;;1999.90;999.90;;;1.90;99.90;;;;;;5074154;28;20025;-69
2024/01/15 11:11:18;;;;;;;1999.90;999.90;;;2.00;99.90;;;;;;5067691;28;20043;-69
2024/01/15 11:13:47;;;;;;;1999.90;999.90;;;2.10;99.90;;;;;;5072360;28;20023;-69
2024/01/15 11:16:14;;;;;;;1999.90;999.90;;;2.10;99.90;;;;;;5092850;28;20032;-68
2024/01/15 11:18:42;;;;;;;1999.90;999.90;;;2.10;99.90;;;;;;5070444;28;20027;-67
2024/01/15 11:21:17;;;;;;;1999.90;999.90;;;2.20;99.90;;;;;;5088290;28;20078;-69
2024/01/15 11:23:57;;;;;;;1999.90;999.90;;;2.20;99.90;;;;;;5090195;28;20016;-69
2024/01/15 11:26:46;;;;;;;1999.90;999.90;;;2.20;99.90;;;;;;5092851;28;20418;-69
2024/01/15 11:29:42;;;;;;;1999.90;999.90;;;2.20;99.90;;;;;;5084533;28;20559;-69
2024/01/15 11:32:10;;;;;;;1999.90;999.90;;;2.20;99.90;;;;;;5060063;28;20343;-68
2024/01/15 11:35:00;;;;;;;1999.90;999.90;;;2.30;99.90;;;;;;5073405;28;20036;-69
2024/01/15 11:37:27;;;;;;;1999.90;999.90;;;2.50;99.90;;;;;;5092464;28;20027;-68
2024/01/15 11:39:54;;;;;;;1999.90;999.90;;;2.60;99.90;;;;;;5085253;28;20099;-68
2024/01/15 11:42:24;;;;;;;1999.90;999.90;;;2.60;99.90;;;;;;5086530;28;20362;-69
2024/01/15 11:44:50;;;;;;;1999.90;999.90;;;2.80;99.90;;;;;;5089225;28;20048;-69
2024/01/15 11:47:40;;;;;;;1999.90;999.90;;;3.00;99.90;;;;;;5079710;28;20086;-68
2024/01/15 11:50:08;;;;;;;1999.90;999.90;;;3.20;99.90;;;;;;5064800;28;20036;-69
2024/01/15 11:52:38;;;;;;;1999.90;999.90;;;3.50;99.90;;;;;;5092375;28;20024;-69
2024/01/15 11:55:22;;;;;;;1999.90;999.90;;;3.50;99.90;;;;;;5080970;28;20023;-68
2024/01/15 11:57:51;;;;;;;1999.90;999.90;;;3.50;99.90;;;;;;5089788;28;20016;-68
2024/01/15 12:00:17;;;;;;;1999.90;999.90;;;3.60;99.90;;;;;;5092268;28;20158;-68
2024/01/15 12:02:44;;;;;;;1999.90;999.90;;;3.70;99.90;;;;;;5088845;28;20023;-69
2024/01/15 12:05:12;;;;;;;1999.90;999.90;;;3.90;99.90;;;;;;5092238;28;20039;-69
2024/01/15 12:07:39;;;;;;;1999.90;999.90;;;4.00;99.90;;;;;;5064161;28;20036;-68
2024/01/15 12:10:14;;;;;;;1999.90;999.90;;;4.00;99.90;;;;;;5082588;28;20026;-68